Time;durP1;ratioP1;P1;durP2;ratioP2;P2;SDS_P1;SDS_P2;PMS_P1;PMS_P2;Temp;Humidity;BMP_temperature;BMP_pressure;BME280_temperature;BME280_humidity;BME280_pressure;Samples;Min_cycle;Max_cycle;Signal;HPM_P1;HPM_P2
2021/09/24 00:01:28;;;;;;;3.20;2.90;;;;;;;33.35;12.94;94736.75;5016961;28;20376;-65
2021/09/24 00:03:55;;;;;;;3.50;2.85;;;;;;;33.26;12.95;94726.47;4981258;28;20053;-61
2021/09/24 00:06:22;;;;;;;3.13;2.83;;;;;;;33.24;13.18;94719.94;4997474;28;20046;-66
2021/09/24 00:08:49;;;;;;;2.92;2.63;;;;;;;33.28;12.65;94723.31;4980138;28;20046;-67
2021/09/24 00:11:16;;;;;;;2.83;2.63;;;;;;;33.31;12.63;94726.00;4997327;28;20054;-62
2021/09/24 00:13:43;;;;;;;2.97;2.78;;;;;;;33.30;12.91;94720.94;5012775;28;20049;-68
2021/09/24 00:16:10;;;;;;;2.70;2.50;;;;;;;32.18;14.09;94724.47;5004307;28;20046;-65
2021/09/24 00:18:38;;;;;;;3.50;2.75;;;;;;;32.81;13.05;94729.06;5004010;28;20061;-65
2021/09/24 00:21:05;;;;;;;3.33;2.80;;;;;;;33.04;13.25;94720.00;4999196;28;20053;-59
2021/09/24 00:23:32;;;;;;;3.20;2.90;;;;;;;31.92;13.88;94716.50;5011688;28;20081;-65
2021/09/24 00:25:59;;;;;;;3.47;3.17;;;;;;;31.48;14.39;94718.41;4996239;28;20050;-59
2021/09/24 00:28:26;;;;;;;3.10;2.88;;;;;;;31.26;14.44;94718.00;4996193;28;20046;-62
2021/09/24 00:30:53;;;;;;;3.30;3.00;;;;;;;30.58;15.34;94721.63;5015108;28;20052;-60
2021/09/24 00:33:21;;;;;;;3.25;2.88;;;;;;;31.47;14.56;94714.16;5015912;28;20042;-62
2021/09/24 00:35:48;;;;;;;3.22;2.92;;;;;;;31.07;14.83;94711.31;5015432;28;20053;-59
2021/09/24 00:38:15;;;;;;;3.38;3.08;;;;;;;31.03;14.90;94713.31;5016369;28;20054;-62
2021/09/24 00:40:42;;;;;;;3.17;2.88;;;;;;;31.37;14.46;94709.72;5016355;28;20041;-62
2021/09/24 00:43:09;;;;;;;2.92;2.63;;;;;;;30.77;15.15;94695.19;5005337;28;20496;-65
2021/09/24 00:45:36;;;;;;;4.40;3.00;;;;;;;31.07;14.95;94700.53;4996261;28;20057;-62
2021/09/24 00:48:03;;;;;;;2.85;2.65;;;;;;;31.05;14.71;94694.78;4998819;28;20057;-62
2021/09/24 00:50:30;;;;;;;3.45;3.08;;;;;;;30.96;15.04;94691.81;5016327;28;20457;-61
2021/09/24 00:52:58;;;;;;;3.17;2.88;;;;;;;31.21;14.97;94700.31;5014368;28;20437;-60
2021/09/24 00:55:26;;;;;;;3.33;2.92;;;;;;;30.80;14.84;94688.97;4997941;28;20475;-62
2021/09/24 00:57:53;;;;;;;2.88;2.67;;;;;;;30.51;15.29;94694.75;5016128;28;20057;-61
2021/09/24 01:00:20;;;;;;;2.88;2.60;;;;;;;30.73;15.32;94689.84;5016187;28;20061;-61
2021/09/24 01:02:48;;;;;;;3.30;3.00;;;;;;;31.01;14.65;94677.88;5014467;28;20046;-65
2021/09/24 01:05:16;;;;;;;3.10;2.90;;;;;;;30.62;15.33;94670.34;5014321;28;20068;-60
2021/09/24 01:07:45;;;;;;;3.03;2.72;;;;;;;31.02;14.97;94684.03;5014747;28;20049;-61
2021/09/24 01:10:15;;;;;;;3.00;2.80;;;;;;;31.34;14.44;94670.78;5015133;28;20053;-64
2021/09/24 01:12:43;;;;;;;3.25;2.95;;;;;;;31.77;14.59;94673.53;5009551;28;20049;-60
2021/09/24 01:15:13;;;;;;;3.15;2.90;;;;;;;32.31;13.61;94667.88;5003382;28;20107;-65
2021/09/24 01:17:40;;;;;;;3.72;3.00;;;;;;;32.44;13.47;94660.59;5002786;28;20046;-62
2021/09/24 01:20:09;;;;;;;3.05;2.50;;;;;;;32.68;13.17;94674.00;4993606;28;20050;-61
2021/09/24 01:22:37;;;;;;;2.80;2.60;;;;;;;32.78;13.08;94662.19;5000684;28;20384;-65
2021/09/24 01:25:07;;;;;;;3.47;2.58;;;;;;;32.93;13.06;94659.94;5013800;28;20046;-60
2021/09/24 01:27:35;;;;;;;3.30;2.90;;;;;;;32.98;13.47;94664.84;4998205;28;20048;-64
2021/09/24 01:30:04;;;;;;;3.20;2.90;;;;;;;32.96;13.27;94651.72;5014444;28;20049;-60
2021/09/24 01:32:31;;;;;;;3.08;2.88;;;;;;;32.98;13.22;94660.19;5015151;28;20048;-64
2021/09/24 01:35:05;;;;;;;2.70;2.50;;;;;;;33.05;13.46;94654.63;5013817;28;20050;-61
2021/09/24 01:37:33;;;;;;;11.00;2.90;;;;;;;33.13;13.01;94644.38;4997870;28;20441;-63
2021/09/24 01:40:01;;;;;;;3.15;2.85;;;;;;;33.13;13.45;94638.19;5006946;28;20053;-63
2021/09/24 01:42:28;;;;;;;3.03;2.70;;;;;;;33.00;13.45;94630.75;4995029;28;20050;-62
2021/09/24 01:44:55;;;;;;;3.42;3.13;;;;;;;33.35;13.22;94633.81;4992082;28;20061;-60
2021/09/24 01:47:22;;;;;;;4.05;2.60;;;;;;;33.27;13.35;94645.97;4994863;28;20050;-59
2021/09/24 01:49:49;;;;;;;3.20;2.80;;;;;;;33.02;13.13;94639.19;4997044;28;20057;-60
2021/09/24 01:52:16;;;;;;;2.80;2.60;;;;;;;33.13;13.17;94638.19;5014184;28;20053;-65
2021/09/24 01:54:44;;;;;;;2.70;2.50;;;;;;;33.15;13.17;94630.41;5013028;28;20044;-63
2021/09/24 01:57:11;;;;;;;2.80;2.60;;;;;;;33.11;13.05;94633.97;5014954;28;20045;-59
2021/09/24 01:59:39;;;;;;;2.97;2.70;;;;;;;33.21;13.00;94639.53;5014450;28;20049;-61
2021/09/24 02:02:06;;;;;;;2.90;2.60;;;;;;;33.22;13.31;94633.69;5015037;28;20069;-66
2021/09/24 02:04:33;;;;;;;3.00;2.80;;;;;;;33.25;13.39;94629.38;5014887;28;20050;-65
2021/09/24 02:07:00;;;;;;;2.97;2.67;;;;;;;33.11;13.13;94625.84;5013393;28;20057;-59
2021/09/24 02:09:27;;;;;;;2.67;2.47;;;;;;;33.19;13.24;94647.31;5015016;28;20361;-62
2021/09/24 02:11:54;;;;;;;2.75;2.55;;;;;;;33.22;13.33;94641.81;4994898;28;20046;-64
2021/09/24 02:14:22;;;;;;;2.88;2.67;;;;;;;33.22;13.19;94630.22;4994739;28;20053;-64
2021/09/24 02:16:49;;;;;;;3.30;3.00;;;;;;;33.24;12.91;94631.31;4994428;28;20043;-60
2021/09/24 02:19:17;;;;;;;3.85;2.60;;;;;;;33.02;13.51;94622.97;4993926;28;20049;-62
2021/09/24 02:21:44;;;;;;;2.90;2.70;;;;;;;33.35;12.78;94622.97;5010581;28;20373;-63
2021/09/24 02:24:11;;;;;;;4.13;2.65;;;;;;;33.13;12.99;94632.78;5014537;28;20461;-64
2021/09/24 02:26:38;;;;;;;3.25;2.63;;;;;;;33.20;13.08;94632.59;5004320;28;20054;-61
2021/09/24 02:29:05;;;;;;;3.13;2.83;;;;;;;33.42;12.72;94633.59;4998617;28;20058;-61
2021/09/24 02:31:33;;;;;;;2.92;2.72;;;;;;;33.20;12.80;94632.59;5014402;28;20330;-61
2021/09/24 02:34:00;;;;;;;3.30;2.92;;;;;;;33.28;12.72;94623.09;5014603;28;20076;-64
2021/09/24 02:36:27;;;;;;;2.78;2.53;;;;;;;33.26;13.06;94620.81;5014316;28;20052;-63
2021/09/24 02:38:54;;;;;;;3.38;2.80;;;;;;;33.07;13.11;94625.19;4995059;28;20050;-61
2021/09/24 02:41:21;;;;;;;4.88;3.80;;;;;;;32.68;13.83;94630.72;4994090;28;20053;-59
2021/09/24 02:43:48;;;;;;;4.60;4.18;;;;;;;32.47;14.03;94621.91;4994795;28;20057;-62
2021/09/24 02:46:15;;;;;;;4.10;3.70;;;;;;;32.43;13.54;94618.50;5005061;28;20049;-63
2021/09/24 02:48:42;;;;;;;6.15;4.13;;;;;;;32.24;13.80;94624.69;5014288;28;20049;-65
2021/09/24 02:51:09;;;;;;;5.43;4.20;;;;;;;32.19;13.83;94627.91;5009768;28;20058;-62
2021/09/24 02:53:36;;;;;;;4.88;4.15;;;;;;;32.04;14.31;94616.63;5002521;28;20380;-62
2021/09/24 02:56:04;;;;;;;4.70;4.20;;;;;;;32.20;13.87;94613.94;5014203;28;20338;-68
2021/09/24 02:58:31;;;;;;;4.80;4.30;;;;;;;32.09;14.08;94618.06;5014697;28;20054;-63
2021/09/24 03:00:58;;;;;;;6.00;4.57;;;;;;;32.05;14.16;94620.09;5006773;28;20365;-59
2021/09/24 03:03:25;;;;;;;5.88;4.28;;;;;;;31.92;14.53;94621.91;4994628;28;20046;-65
2021/09/24 03:05:52;;;;;;;5.05;4.03;;;;;;;31.89;14.58;94626.97;4994477;28;20077;-60
2021/09/24 03:08:19;;;;;;;4.40;3.97;;;;;;;31.97;14.43;94626.81;4994671;28;20358;-61
2021/09/24 03:10:47;;;;;;;6.68;4.15;;;;;;;31.82;14.45;94627.09;4999858;28;20056;-65
2021/09/24 03:13:14;;;;;;;4.88;4.43;;;;;;;31.75;14.66;94635.34;5012992;28;20057;-60
2021/09/24 03:15:41;;;;;;;5.10;4.60;;;;;;;31.90;14.19;94644.69;5013822;28;20045;-58
2021/09/24 03:18:08;;;;;;;5.22;4.32;;;;;;;31.86;14.69;94630.50;5013008;28;20483;-63
2021/09/24 03:20:35;;;;;;;4.97;4.55;;;;;;;31.85;14.41;94637.09;5014020;28;20050;-67
2021/09/24 03:23:03;;;;;;;5.10;4.60;;;;;;;31.66;14.32;94618.88;5014304;28;20060;-64
2021/09/24 03:25:30;;;;;;;4.45;4.05;;;;;;;31.74;14.34;94616.84;5008263;28;20038;-63
2021/09/24 03:27:57;;;;;;;4.75;4.28;;;;;;;31.73;14.45;94623.41;4993798;28;20799;-66
2021/09/24 03:30:24;;;;;;;5.15;4.60;;;;;;;31.73;14.61;94624.19;5007960;28;20054;-61
2021/09/24 03:32:51;;;;;;;6.15;4.63;;;;;;;31.61;14.44;94622.06;5012986;28;20062;-62
2021/09/24 03:35:18;;;;;;;9.05;4.90;;;;;;;31.69;14.42;94623.47;4985863;28;20053;-64
2021/09/24 03:37:46;;;;;;;5.85;4.50;;;;;;;31.68;14.68;94627.34;4996767;28;20054;-62
2021/09/24 03:40:13;;;;;;;6.18;4.70;;;;;;;31.69;14.76;94618.06;4997957;28;20050;-60
2021/09/24 03:42:41;;;;;;;5.60;4.95;;;;;;;31.65;14.51;94617.38;4996717;28;20061;-58
2021/09/24 03:45:09;;;;;;;4.75;4.35;;;;;;;31.90;14.37;94617.66;5009317;28;20563;-60
2021/09/24 03:47:36;;;;;;;5.68;4.40;;;;;;;31.75;14.29;94616.44;4999004;28;20056;-65
2021/09/24 03:50:04;;;;;;;4.82;4.20;;;;;;;31.73;14.35;94618.00;5017039;28;20050;-60
2021/09/24 03:52:31;;;;;;;4.80;4.40;;;;;;;31.77;14.59;94621.44;5017212;28;20396;-62
2021/09/24 03:54:59;;;;;;;5.22;4.70;;;;;;;31.79;14.73;94616.38;5016689;28;20041;-61
2021/09/24 03:57:26;;;;;;;5.10;4.60;;;;;;;31.58;14.61;94631.00;5017061;28;20053;-62
2021/09/24 03:59:53;;;;;;;5.18;4.68;;;;;;;31.85;14.60;94630.91;5016672;28;20392;-59
2021/09/24 04:02:20;;;;;;;5.68;4.72;;;;;;;31.75;14.75;94632.66;5017203;28;20045;-63
2021/09/24 04:04:47;;;;;;;5.68;4.70;;;;;;;31.65;14.81;94630.09;5016525;28;20068;-60
2021/09/24 04:07:15;;;;;;;5.70;4.90;;;;;;;31.73;14.46;94624.19;5016219;28;20054;-64
2021/09/24 04:09:42;;;;;;;5.88;4.72;;;;;;;31.72;14.79;94611.84;5015757;28;20046;-63
2021/09/24 04:12:09;;;;;;;6.40;4.97;;;;;;;31.75;14.55;94616.44;5012436;28;20042;-52
2021/09/24 04:14:37;;;;;;;5.07;4.57;;;;;;;31.71;14.99;94606.81;5015226;28;20042;-55
2021/09/24 04:17:04;;;;;;;5.45;4.95;;;;;;;31.79;14.47;94606.31;5015779;28;20050;-69
2021/09/24 04:19:32;;;;;;;7.68;4.93;;;;;;;31.78;14.60;94604.78;5010702;28;20049;-45
2021/09/24 04:21:59;;;;;;;5.40;4.90;;;;;;;31.93;14.65;94604.50;4999339;28;20544;-55
2021/09/24 04:24:27;;;;;;;5.75;4.65;;;;;;;30.35;16.41;94616.38;5012245;28;20058;-51
2021/09/24 04:26:54;;;;;;;4.57;4.18;;;;;;;31.31;16.34;94624.94;5011848;28;20042;-47
2021/09/24 04:29:21;;;;;;;4.90;4.40;;;;;;;31.58;16.52;94625.59;5002708;28;20052;-55
2021/09/24 04:31:48;;;;;;;5.40;4.63;;;;;;;31.47;16.52;94638.53;5002353;28;20042;-45
2021/09/24 04:34:15;;;;;;;5.30;4.78;;;;;;;32.03;16.64;94635.97;4996118;28;20480;-48
2021/09/24 04:36:42;;;;;;;10.02;5.22;;;;;;;31.86;16.81;94627.03;4995712;28;20057;-51
2021/09/24 04:39:10;;;;;;;8.60;5.60;;;;;;;31.60;16.47;94615.91;4996011;28;20042;-53
2021/09/24 04:41:37;;;;;;;27.55;7.07;;;;;;;31.58;16.60;94617.50;5001361;28;20058;-53
2021/09/24 04:44:04;;;;;;;12.05;7.75;;;;;;;33.94;15.47;94608.22;5008098;28;20050;-46
2021/09/24 04:46:31;;;;;;;18.95;8.57;;;;;;;35.35;14.66;94602.34;5000937;28;20133;-54
2021/09/24 04:48:58;;;;;;;10.98;7.90;;;;;;;34.25;14.23;94603.81;5001846;28;20046;-48
2021/09/24 04:51:26;;;;;;;11.07;7.20;;;;;;;34.66;13.80;94612.34;4996568;28;20508;-55
2021/09/24 04:53:53;;;;;;;9.15;7.80;;;;;;;32.79;14.68;94606.88;4996402;28;20046;-62
2021/09/24 04:56:20;;;;;;;10.65;8.10;;;;;;;33.57;14.15;94618.50;5015430;28;20052;-57
2021/09/24 04:58:47;;;;;;;9.32;7.30;;;;;;;32.86;14.06;94611.38;5014870;28;20068;-49
2021/09/24 05:01:14;;;;;;;9.43;7.82;;;;;;;32.67;14.24;94610.25;5015896;28;20491;-49
2021/09/24 05:03:41;;;;;;;9.15;8.25;;;;;;;32.50;14.32;94615.63;5009493;28;20492;-63
2021/09/24 05:06:08;;;;;;;9.32;7.95;;;;;;;32.29;14.26;94615.38;4995754;28;20050;-59
2021/09/24 05:08:35;;;;;;;9.23;7.57;;;;;;;32.39;14.13;94625.94;4995602;28;20054;-68
2021/09/24 05:11:02;;;;;;;12.93;6.95;;;;;;;31.58;14.74;94639.13;4996362;28;20458;-50
2021/09/24 05:13:30;;;;;;;12.13;7.75;;;;;;;31.72;14.87;94628.06;4996221;28;20050;-64
2021/09/24 05:15:57;;;;;;;9.48;7.57;;;;;;;32.23;14.31;94628.56;5011470;28;20072;-64
2021/09/24 05:18:24;;;;;;;10.02;7.32;;;;;;;32.24;14.57;94643.63;5014800;28;20041;-68
2021/09/24 05:20:51;;;;;;;12.18;6.47;;;;;;;31.63;15.01;94646.75;5015525;28;20053;-50
2021/09/24 05:23:18;;;;;;;8.77;6.75;;;;;;;31.08;15.79;94642.66;5011700;28;20385;-63
2021/09/24 05:25:45;;;;;;;8.65;6.70;;;;;;;31.88;15.10;94651.69;5008376;28;20049;-51
2021/09/24 05:28:12;;;;;;;8.18;6.05;;;;;;;31.12;15.14;94645.28;5005171;28;20046;-68
2021/09/24 05:30:39;;;;;;;6.45;5.75;;;;;;;31.66;14.83;94635.09;4996966;28;20068;-63
2021/09/24 05:33:06;;;;;;;7.03;5.70;;;;;;;31.58;14.97;94639.88;4995782;28;20053;-54
2021/09/24 05:35:33;;;;;;;7.85;6.05;;;;;;;31.38;14.72;94632.91;4995275;28;20046;-57
2021/09/24 05:38:00;;;;;;;7.25;6.00;;;;;;;30.17;15.96;94621.22;4995555;28;20472;-53
2021/09/24 05:40:27;;;;;;;6.97;5.78;;;;;;;30.58;14.67;94624.50;4995153;28;20054;-65
2021/09/24 05:42:54;;;;;;;5.55;4.95;;;;;;;30.18;15.33;94603.88;4995731;28;20050;-63
2021/09/24 05:45:22;;;;;;;7.78;5.00;;;;;;;30.06;15.22;94595.19;4993879;28;20047;-70
2021/09/24 05:47:49;;;;;;;6.35;4.13;;;;;;;30.05;15.17;94584.81;4995371;28;20042;-55
2021/09/24 05:50:16;;;;;;;5.70;4.38;;;;;;;30.20;15.24;94594.25;4994232;28;20058;-59
2021/09/24 05:52:49;;;;;;;9.00;4.68;;;;;;;30.30;15.04;94587.16;4995824;28;20050;-48
2021/09/24 05:55:18;;;;;;;9.57;4.82;;;;;;;30.25;14.92;94590.31;4994523;28;20038;-56
2021/09/24 05:57:46;;;;;;;7.00;5.13;;;;;;;30.10;15.26;94594.38;4995043;28;20049;-65
2021/09/24 06:00:17;;;;;;;6.78;4.95;;;;;;;30.61;15.03;94585.97;4995070;28;20046;-63
2021/09/24 06:02:45;;;;;;;6.05;5.28;;;;;;;30.94;14.95;94591.59;4995452;28;20460;-60
2021/09/24 06:05:13;;;;;;;8.18;5.57;;;;;;;30.52;15.20;94609.19;5003261;28;20057;-72
2021/09/24 06:07:43;;;;;;;6.90;5.18;;;;;;;31.02;14.72;94603.81;5013847;28;20046;-60
2021/09/24 06:10:11;;;;;;;6.22;5.18;;;;;;;31.06;14.96;94593.72;5015248;28;20050;-48
2021/09/24 06:12:38;;;;;;;9.25;5.85;;;;;;;30.73;14.91;94597.34;5013930;28;20056;-54
2021/09/24 06:15:06;;;;;;;8.00;6.30;;;;;;;30.71;15.03;94610.47;5007403;28;20038;-46
2021/09/24 06:17:34;;;;;;;10.43;6.30;;;;;;;31.42;14.81;94620.88;4995297;28;20053;-46
2021/09/24 06:20:02;;;;;;;8.35;7.40;;;;;;;31.37;14.68;94623.28;5013293;28;20045;-46
2021/09/24 06:22:30;;;;;;;9.90;7.95;;;;;;;31.24;14.81;94632.00;5003463;28;20058;-53
2021/09/24 06:24:57;;;;;;;12.45;8.50;;;;;;;31.98;13.80;94631.78;4994808;28;20445;-48
2021/09/24 06:27:24;;;;;;;10.65;9.55;;;;;;;31.89;14.43;94620.78;4994912;28;20054;-62
2021/09/24 06:29:54;;;;;;;10.52;9.43;;;;;;;32.10;14.11;94627.72;4994029;28;20046;-66
2021/09/24 06:32:21;;;;;;;11.07;9.88;;;;;;;31.50;14.57;94632.34;4995087;28;20050;-68
2021/09/24 06:34:49;;;;;;;13.35;9.70;;;;;;;31.71;14.72;94631.16;4998772;28;20056;-64
2021/09/24 06:37:16;;;;;;;9.43;8.48;;;;;;;31.68;14.38;94630.03;5014066;28;20049;-60
2021/09/24 06:39:44;;;;;;;11.15;8.52;;;;;;;32.06;14.21;94627.78;5014488;28;20050;-69
2021/09/24 06:42:11;;;;;;;9.05;7.82;;;;;;;32.42;13.88;94625.09;5005353;28;20054;-69
2021/09/24 06:44:38;;;;;;;11.50;9.10;;;;;;;32.51;13.90;94627.97;4997140;28;20347;-52
2021/09/24 06:47:06;;;;;;;9.55;8.20;;;;;;;33.17;13.73;94628.78;5014254;28;20050;-56
2021/09/24 06:49:34;;;;;;;12.38;8.88;;;;;;;33.71;13.30;94628.19;5014239;28;20050;-66
2021/09/24 06:52:02;;;;;;;11.25;8.77;;;;;;;33.28;13.29;94617.69;4996629;28;20057;-53
2021/09/24 06:54:30;;;;;;;9.77;8.23;;;;;;;33.06;13.20;94607.41;4994989;28;20054;-61
2021/09/24 06:56:57;;;;;;;9.48;8.48;;;;;;;33.61;13.54;94613.00;4994676;28;20366;-64
2021/09/24 06:59:24;;;;;;;10.65;8.32;;;;;;;33.97;13.14;94610.06;4994593;28;20054;-62
2021/09/24 07:01:51;;;;;;;10.18;9.00;;;;;;;34.19;12.64;94605.56;4994848;28;20050;-51
2021/09/24 07:04:18;;;;;;;10.18;8.50;;;;;;;34.56;12.47;94608.75;4993915;28;20130;-51
2021/09/24 07:06:46;;;;;;;12.15;9.45;;;;;;;34.66;12.51;94588.66;5015183;28;20046;-61
2021/09/24 07:09:13;;;;;;;11.18;9.13;;;;;;;34.93;12.13;94588.97;5017058;28;20046;-47
2021/09/24 07:11:40;;;;;;;9.52;8.32;;;;;;;34.38;12.77;94586.84;5017865;28;20064;-46
2021/09/24 07:14:10;;;;;;;9.50;8.50;;;;;;;34.22;12.88;94584.94;5018000;28;20048;-46
2021/09/24 07:16:38;;;;;;;10.40;8.13;;;;;;;34.47;12.55;94573.38;4999972;28;20050;-47
2021/09/24 07:19:06;;;;;;;9.93;8.77;;;;;;;35.00;12.31;94570.91;4998147;28;20045;-63
2021/09/24 07:21:33;;;;;;;11.90;8.98;;;;;;;34.25;12.91;94581.34;4998178;28;20046;-67
2021/09/24 07:24:01;;;;;;;10.52;8.32;;;;;;;34.43;12.80;94591.72;4998195;28;20045;-67
2021/09/24 07:26:29;;;;;;;11.23;8.65;;;;;;;34.51;12.78;94595.72;5013290;28;20483;-53
2021/09/24 07:28:56;;;;;;;10.43;8.52;;;;;;;34.56;12.66;94603.31;5017436;28;20461;-61
2021/09/24 07:31:23;;;;;;;11.57;8.70;;;;;;;33.72;13.64;94592.53;5017753;28;20050;-53
2021/09/24 07:33:50;;;;;;;12.10;9.30;;;;;;;33.20;13.97;94594.69;5017727;28;20049;-68
2021/09/24 07:36:18;;;;;;;10.65;9.57;;;;;;;33.38;13.43;94603.16;5016982;28;20042;-57
2021/09/24 07:38:46;;;;;;;11.80;9.40;;;;;;;33.04;14.07;94607.03;5017620;28;20060;-51
2021/09/24 07:41:15;;;;;;;9.70;8.00;;;;;;;32.81;14.17;94612.66;5017112;28;20050;-70
2021/09/24 07:43:43;;;;;;;10.23;8.73;;;;;;;34.29;13.31;94634.31;4997838;28;20046;-48
2021/09/24 07:46:11;;;;;;;9.05;8.02;;;;;;;34.68;12.90;94637.84;4992444;28;20437;-69
2021/09/24 07:48:41;;;;;;;9.32;8.27;;;;;;;34.95;12.28;94633.94;5016684;28;20054;-61
2021/09/24 07:51:08;;;;;;;9.93;7.70;;;;;;;35.53;11.88;94640.56;5016278;28;20057;-51
2021/09/24 07:53:36;;;;;;;8.80;7.70;;;;;;;36.16;11.72;94657.78;5016672;28;20049;-68
2021/09/24 07:56:05;;;;;;;8.13;7.32;;;;;;;35.69;11.69;94645.06;5009169;28;20350;-61
2021/09/24 07:58:32;;;;;;;7.40;6.63;;;;;;;34.62;12.76;94645.03;4996771;28;20057;-48
2021/09/24 08:00:59;;;;;;;8.68;7.30;;;;;;;34.74;12.39;94646.97;4997313;28;20488;-56
2021/09/24 08:03:27;;;;;;;7.75;7.00;;;;;;;34.11;12.85;94639.50;4997429;28;20450;-68
2021/09/24 08:05:54;;;;;;;9.60;7.22;;;;;;;34.00;12.91;94633.63;4996968;28;20058;-69
2021/09/24 08:08:21;;;;;;;10.00;7.22;;;;;;;33.76;13.21;94627.66;4997425;28;20383;-64
2021/09/24 08:10:48;;;;;;;8.35;6.80;;;;;;;34.11;12.77;94631.38;4997491;28;20049;-57
2021/09/24 08:13:15;;;;;;;8.43;7.32;;;;;;;34.31;12.88;94631.16;4997389;28;20357;-57
2021/09/24 08:15:43;;;;;;;9.20;6.93;;;;;;;34.55;12.93;94618.06;4996781;28;20365;-55
2021/09/24 08:18:12;;;;;;;8.00;7.20;;;;;;;34.38;12.80;94608.53;5011680;28;20046;-50
2021/09/24 08:20:43;;;;;;;6.88;6.18;;;;;;;34.33;13.05;94604.34;5016911;28;20073;-49
2021/09/24 08:23:10;;;;;;;8.90;6.53;;;;;;;35.60;12.31;94598.00;5015465;28;20053;-52
2021/09/24 08:25:37;;;;;;;9.05;6.53;;;;;;;35.43;12.46;94581.91;5004651;28;20369;-59
2021/09/24 08:28:05;;;;;;;7.10;6.40;;;;;;;35.28;12.60;94586.25;5000848;28;20053;-49
2021/09/24 08:30:32;;;;;;;7.13;6.43;;;;;;;35.16;12.65;94581.63;4996231;28;20046;-53
2021/09/24 08:33:01;;;;;;;8.50;5.82;;;;;;;35.40;12.99;94582.78;4995845;28;20061;-51
2021/09/24 08:35:29;;;;;;;6.93;6.20;;;;;;;35.54;12.66;94587.69;4996697;28;20042;-49
2021/09/24 08:37:56;;;;;;;7.30;5.93;;;;;;;35.58;12.82;94586.81;4996538;28;20057;-57
2021/09/24 08:40:26;;;;;;;7.53;6.00;;;;;;;35.92;12.75;94583.31;4996820;28;20177;-60
2021/09/24 08:42:53;;;;;;;6.65;5.95;;;;;;;36.07;12.98;94585.03;4996782;28;20056;-67
2021/09/24 08:45:28;;;;;;;8.15;5.70;;;;;;;36.35;11.87;94583.25;4996822;28;20054;-67
2021/09/24 08:47:57;;;;;;;8.10;5.22;;;;;;;36.05;12.21;94579.28;5002086;28;20054;-65
2021/09/24 08:50:25;;;;;;;5.90;4.88;;;;;;;35.96;12.08;94584.69;4996785;28;20059;-65
2021/09/24 08:52:54;;;;;;;5.20;4.03;;;;;;;36.46;11.62;94580.13;4995932;28;20057;-58
2021/09/24 08:55:21;;;;;;;4.40;3.72;;;;;;;36.55;12.05;94587.56;4996181;28;20361;-64
2021/09/24 08:57:49;;;;;;;5.05;4.05;;;;;;;36.59;11.12;94588.91;5000375;28;20072;-50
2021/09/24 09:00:17;;;;;;;4.75;3.55;;;;;;;36.60;10.94;94581.50;5015653;28;20042;-66
2021/09/24 09:03:11;;;;;;;5.25;3.70;;;;;;;36.43;10.78;94578.28;5014935;28;20373;-60
2021/09/24 09:05:47;;;;;;;4.22;3.22;;;;;;;36.39;11.38;94574.94;5011932;28;20052;-60
2021/09/24 09:08:24;;;;;;;6.10;4.85;;;;;;;36.70;11.05;94562.03;4996190;28;20053;-51
2021/09/24 09:11:14;;;;;;;6.55;5.13;;;;;;;37.46;11.19;94562.44;4996259;28;20050;-52
2021/09/24 09:13:47;;;;;;;7.80;5.17;;;;;;;37.67;11.12;94569.69;4995467;28;20046;-50
2021/09/24 09:16:21;;;;;;;5.35;3.35;;;;;;;37.75;9.80;94565.50;5001655;28;20045;-53
2021/09/24 09:18:50;;;;;;;3.17;2.63;;;;;;;38.24;8.77;94572.66;4996329;28;20057;-60
2021/09/24 09:21:22;;;;;;;6.47;2.10;;;;;;;37.99;9.00;94560.13;4996215;28;20073;-58
2021/09/24 09:23:54;;;;;;;2.97;2.40;;;;;;;38.04;8.63;94564.22;4995949;28;20054;-65
2021/09/24 09:26:25;;;;;;;2.35;2.15;;;;;;;38.23;8.98;94557.50;5002990;28;20053;-47
2021/09/24 09:28:57;;;;;;;2.72;2.30;;;;;;;38.00;8.81;94556.19;4994989;28;20042;-65
2021/09/24 09:31:32;;;;;;;3.33;2.45;;;;;;;37.47;9.29;94548.34;4994446;28;20042;-50
2021/09/24 09:34:03;;;;;;;2.60;2.10;;;;;;;38.07;9.17;94550.41;4994913;28;20084;-56
2021/09/24 09:36:38;;;;;;;4.53;1.98;;;;;;;38.44;8.69;94556.50;4995520;28;20464;-51
2021/09/24 09:39:15;;;;;;;2.03;1.60;;;;;;;38.55;8.25;94540.38;4995671;28;20050;-64
2021/09/24 09:41:51;;;;;;;2.00;1.60;;;;;;;38.28;8.24;94532.31;4995637;28;20046;-48
2021/09/24 09:44:30;;;;;;;3.25;1.90;;;;;;;38.38;8.56;94535.75;4994641;28;20046;-66
2021/09/24 09:46:58;;;;;;;2.60;2.00;;;;;;;37.41;8.96;94528.38;5003476;28;20050;-49
2021/09/24 09:49:27;;;;;;;2.08;1.88;;;;;;;38.00;8.06;94534.38;4995381;28;20054;-60
2021/09/24 09:52:27;;;;;;;3.33;1.83;;;;;;;37.97;8.26;94536.03;4995521;28;20050;-68
2021/09/24 09:55:01;;;;;;;1.95;1.60;;;;;;;38.39;8.45;94531.81;4943441;28;20057;-53
2021/09/24 09:57:28;;;;;;;1.90;1.70;;;;;;;38.82;8.01;94536.00;5001698;28;20049;-67
2021/09/24 09:59:56;;;;;;;2.80;1.83;;;;;;;37.63;8.75;94536.38;5014611;28;20076;-55
2021/09/24 10:02:31;;;;;;;2.78;1.80;;;;;;;38.49;8.59;94534.00;5014986;28;20053;-51
2021/09/24 10:04:58;;;;;;;3.00;1.83;;;;;;;38.01;8.88;94535.13;5015017;28;20057;-55
2021/09/24 10:07:29;;;;;;;2.28;1.50;;;;;;;38.25;7.96;94528.50;5005880;28;20445;-56
2021/09/24 10:10:14;;;;;;;1.58;1.48;;;;;;;37.82;9.20;94537.13;5014925;28;20057;-51
2021/09/24 10:12:43;;;;;;;3.45;1.80;;;;;;;38.02;8.93;94525.72;5014859;28;20046;-54
2021/09/24 10:15:14;;;;;;;2.80;1.85;;;;;;;38.36;8.14;94528.03;5014955;28;20049;-47
2021/09/24 10:17:42;;;;;;;4.43;1.70;;;;;;;38.00;8.66;94528.91;5006022;28;20372;-48
2021/09/24 10:20:10;;;;;;;17.45;15.85;;;;;;;38.47;8.59;94532.97;4994918;28;20043;-47
2021/09/24 10:22:38;;;;;;;9.98;9.02;;;;;;;38.66;8.78;94539.13;4995333;28;20438;-47
2021/09/24 10:25:06;;;;;;;3.50;3.20;;;;;;;38.08;8.72;94529.34;4995055;28;20054;-47
2021/09/24 10:27:40;;;;;;;2.92;2.30;;;;;;;38.79;8.45;94536.94;5002771;28;20058;-48
2021/09/24 10:30:13;;;;;;;2.30;2.10;;;;;;;38.88;8.21;94534.13;4985231;28;20046;-57
2021/09/24 10:32:55;;;;;;;3.30;2.30;;;;;;;39.00;7.93;94535.84;4995130;28;20062;-54
2021/09/24 10:35:22;;;;;;;3.85;2.08;;;;;;;38.95;8.21;94530.28;4994945;28;20046;-58
2021/09/24 10:37:49;;;;;;;2.60;2.13;;;;;;;39.05;8.40;94529.00;5003016;28;20468;-50
2021/09/24 10:40:23;;;;;;;2.50;1.80;;;;;;;39.07;8.00;94541.00;4998459;28;20053;-55
2021/09/24 10:43:01;;;;;;;2.72;1.80;;;;;;;39.22;8.31;94534.81;5018680;28;20487;-56
2021/09/24 10:45:35;;;;;;;4.13;1.95;;;;;;;39.15;8.70;94536.69;5014668;28;20053;-51
2021/09/24 10:48:02;;;;;;;2.10;1.90;;;;;;;38.83;9.11;94529.31;5001402;28;20054;-53
2021/09/24 10:50:33;;;;;;;2.10;1.90;;;;;;;38.82;8.44;94514.16;4998031;28;20058;-67
2021/09/24 10:53:14;;;;;;;2.25;1.70;;;;;;;38.89;8.35;94502.84;4998952;28;20054;-49
2021/09/24 10:55:42;;;;;;;;;;;;;;;38.61;8.83;94506.97;4998978;28;20480;-63
2021/09/24 10:58:28;;;;;;;2.85;1.80;;;;;;;38.35;8.81;94512.88;5013225;28;20324;-57
2021/09/24 11:00:57;;;;;;;2.88;1.80;;;;;;;38.24;8.58;94499.72;5017972;28;20054;-46
2021/09/24 11:03:25;;;;;;;2.75;1.92;;;;;;;38.29;9.29;94498.34;5018176;28;20046;-47
2021/09/24 11:05:55;;;;;;;2.28;2.05;;;;;;;37.64;9.92;94499.72;5012963;28;20050;-53
2021/09/24 11:08:37;;;;;;;3.67;1.98;;;;;;;37.74;9.64;94487.63;5015643;28;20049;-46
2021/09/24 11:11:08;;;;;;;2.40;2.10;;;;;;;37.72;9.32;94492.75;5018028;28;20437;-47
2021/09/24 11:13:39;;;;;;;2.22;1.92;;;;;;;37.91;9.72;94493.47;5017432;28;20050;-46
2021/09/24 11:16:08;;;;;;;4.80;2.25;;;;;;;37.89;9.97;94496.66;4999815;28;20042;-47
2021/09/24 11:18:58;;;;;;;2.75;2.13;;;;;;;38.10;9.30;94494.16;4998760;28;20053;-47
2021/09/24 11:21:26;;;;;;;2.10;1.90;;;;;;;37.82;10.08;94480.63;4998343;28;20049;-47
2021/09/24 11:23:54;;;;;;;2.15;1.95;;;;;;;37.77;10.33;94469.56;4980228;28;20126;-47
2021/09/24 11:26:28;;;;;;;2.60;2.40;;;;;;;38.06;10.06;94463.56;4997512;28;20062;-48
2021/09/24 11:29:12;;;;;;;2.45;2.15;;;;;;;37.58;10.37;94471.56;4997970;28;20050;-47
2021/09/24 11:32:00;;;;;;;2.20;2.00;;;;;;;37.94;9.96;94471.47;4997215;28;20050;-64
2021/09/24 11:34:39;;;;;;;4.43;2.42;;;;;;;37.67;10.22;94457.91;4998287;28;20050;-66
2021/09/24 11:37:17;;;;;;;2.20;2.00;;;;;;;38.19;9.62;94447.72;4997348;28;20042;-54
2021/09/24 11:39:45;;;;;;;2.22;2.03;;;;;;;37.94;10.07;94443.44;4997549;28;20057;-66
2021/09/24 11:42:15;;;;;;;2.30;2.10;;;;;;;37.96;9.95;94447.19;4997881;28;20046;-48